createdAt,value
2019-05-16T00:00:12.561Z,8.90
2019-05-16T00:02:42.359Z,9.00
2019-05-16T00:05:12.149Z,9.10
2019-05-16T00:07:41.784Z,9.10
2019-05-16T00:10:11.588Z,9.10
2019-05-16T00:12:41.231Z,9.10
2019-05-16T00:15:10.896Z,9.00
2019-05-16T00:17:40.606Z,9.00
2019-05-16T00:20:10.636Z,8.90
2019-05-16T00:22:40.214Z,8.80
2019-05-16T00:25:10.404Z,8.70
2019-05-16T00:27:40.252Z,8.80
2019-05-16T00:30:10.450Z,8.80
2019-05-16T00:32:40.184Z,8.80
2019-05-16T00:35:09.999Z,8.80
2019-05-16T00:37:39.811Z,8.80
2019-05-16T00:40:09.819Z,8.70
2019-05-16T00:42:39.567Z,8.70
2019-05-16T00:45:09.564Z,8.60
2019-05-16T00:47:39.268Z,8.60
2019-05-16T00:50:09.688Z,8.70
2019-05-16T00:52:39.716Z,8.90
2019-05-16T00:55:09.760Z,8.90
2019-05-16T00:57:41.276Z,8.90
2019-05-16T01:00:13.454Z,8.80
2019-05-16T01:02:43.525Z,8.80
2019-05-16T01:05:14.647Z,8.80
2019-05-16T01:07:44.216Z,8.80
2019-05-16T01:10:13.928Z,8.80
2019-05-16T01:12:43.479Z,8.90
2019-05-16T01:15:13.430Z,8.90
2019-05-16T01:17:43.125Z,8.90
2019-05-16T01:20:13.064Z,9.00
2019-05-16T01:22:42.837Z,9.00
2019-05-16T01:25:12.496Z,9.00
2019-05-16T01:27:42.042Z,9.00
2019-05-16T01:30:12.839Z,8.90
2019-05-16T01:32:42.467Z,8.90
2019-05-16T01:35:12.260Z,8.80
2019-05-16T01:37:41.826Z,8.80
2019-05-16T01:40:11.725Z,8.80
2019-05-16T01:42:42.209Z,8.80
2019-05-16T01:45:12.122Z,8.80
2019-05-16T01:47:41.833Z,8.80
2019-05-16T01:50:11.576Z,8.80
2019-05-16T01:52:41.287Z,8.80
2019-05-16T01:55:11.219Z,8.80
2019-05-16T01:57:40.897Z,8.90
2019-05-16T02:00:10.921Z,8.90
2019-05-16T02:02:40.485Z,8.90
2019-05-16T02:05:10.319Z,9.00
2019-05-16T02:07:39.921Z,9.00
2019-05-16T02:10:09.905Z,9.10
2019-05-16T02:12:40.688Z,9.00
2019-05-16T02:15:10.832Z,9.00
2019-05-16T02:17:41.425Z,8.90
2019-05-16T02:20:11.442Z,8.90
2019-05-16T02:22:41.056Z,8.90
2019-05-16T02:25:11.169Z,8.80
2019-05-16T02:27:41.222Z,8.70
2019-05-16T02:30:13.494Z,8.80
2019-05-16T02:32:43.104Z,8.80
2019-05-16T02:35:12.918Z,8.90
2019-05-16T02:37:42.684Z,8.90
2019-05-16T02:40:14.309Z,8.90
2019-05-16T02:42:45.082Z,9.00
2019-05-16T02:45:15.136Z,9.00
2019-05-16T02:47:45.030Z,8.90
2019-05-16T02:50:14.933Z,8.80
2019-05-16T02:52:44.483Z,8.80
2019-05-16T02:55:14.210Z,8.80
2019-05-16T02:57:43.756Z,8.80
2019-05-16T03:00:13.600Z,8.90
2019-05-16T03:02:43.313Z,8.90
2019-05-16T03:05:13.321Z,8.80
2019-05-16T03:07:47.337Z,8.80
2019-05-16T03:10:15.389Z,8.70
2019-05-16T03:12:47.209Z,8.70
2019-05-16T03:15:16.956Z,8.90
2019-05-16T03:17:50.721Z,8.90
2019-05-16T03:20:21.462Z,8.80
2019-05-16T03:22:51.975Z,8.80
2019-05-16T03:25:22.365Z,8.80
2019-05-16T03:27:52.054Z,8.80
2019-05-16T03:30:23.828Z,8.80
2019-05-16T03:32:54.740Z,8.80
2019-05-16T03:35:25.342Z,8.80
2019-05-16T03:38:00.182Z,8.80
2019-05-16T03:40:31.309Z,8.80
2019-05-16T03:43:01.315Z,8.90
2019-05-16T03:45:31.806Z,8.90
2019-05-16T03:48:02.978Z,8.90
2019-05-16T03:50:32.929Z,8.90
2019-05-16T03:53:02.505Z,8.90
2019-05-16T03:55:32.824Z,8.90
2019-05-16T03:58:02.621Z,8.80
2019-05-16T04:00:54.360Z,8.80
2019-05-16T04:03:28.066Z,8.80
2019-05-16T04:05:55.525Z,8.90
2019-05-16T04:08:25.926Z,8.90
2019-05-16T04:10:55.687Z,8.90
2019-05-16T04:13:25.291Z,8.90
2019-05-16T04:15:54.925Z,8.90
2019-05-16T04:18:24.660Z,8.90
2019-05-16T04:20:54.268Z,8.90
2019-05-16T04:23:23.908Z,8.90
2019-05-16T04:25:53.511Z,9.00
2019-05-16T04:28:23.752Z,9.00
2019-05-16T04:30:53.364Z,9.00
2019-05-16T04:33:24.146Z,9.00
2019-05-16T04:35:53.800Z,9.10
2019-05-16T04:38:35.341Z,9.10
2019-05-16T04:40:54.716Z,9.10
2019-05-16T04:43:24.345Z,9.10
2019-05-16T04:45:53.901Z,9.20
2019-05-16T04:48:23.467Z,9.20
2019-05-16T04:50:53.002Z,9.10
2019-05-16T04:53:22.702Z,9.10
2019-05-16T04:55:52.618Z,9.20
2019-05-16T04:58:23.915Z,9.30
2019-05-16T05:00:53.891Z,9.50
2019-05-16T05:03:23.535Z,9.90
2019-05-16T05:05:54.492Z,10.30
2019-05-16T05:08:24.021Z,10.60
2019-05-16T05:10:53.594Z,11.00
2019-05-16T05:13:23.202Z,11.40
2019-05-16T05:15:52.770Z,11.80
2019-05-16T05:18:22.519Z,12.20
2019-05-16T05:20:52.775Z,12.60
2019-05-16T05:23:22.568Z,12.80
2019-05-16T05:25:52.271Z,13.00
2019-05-16T05:28:21.976Z,13.30
2019-05-16T05:30:51.694Z,13.50
2019-05-16T05:33:21.509Z,13.70
2019-05-16T05:35:51.315Z,14.10
2019-05-16T05:38:21.838Z,14.40
2019-05-16T05:40:52.575Z,14.60
2019-05-16T05:43:22.210Z,15.10
2019-05-16T05:45:51.922Z,15.10
2019-05-16T05:48:22.143Z,15.20
2019-05-16T05:50:52.042Z,15.50
2019-05-16T05:53:22.819Z,15.90
2019-05-16T05:55:52.508Z,15.90
2019-05-16T05:58:22.097Z,15.90
2019-05-16T06:00:52.537Z,16.10
2019-05-16T06:03:23.250Z,16.40
2019-05-16T06:05:53.065Z,16.20
2019-05-16T06:08:22.539Z,16.10
2019-05-16T06:10:52.172Z,16.00
2019-05-16T06:13:21.835Z,16.20
2019-05-16T06:15:51.549Z,16.70
2019-05-16T06:18:21.244Z,17.30
2019-05-16T06:20:51.577Z,18.00
2019-05-16T06:23:21.341Z,18.50
2019-05-16T06:25:51.200Z,19.10
2019-05-16T06:28:21.258Z,20.00
2019-05-16T06:30:52.233Z,21.50
2019-05-16T06:33:21.910Z,21.00
2019-05-16T06:35:51.735Z,20.80
2019-05-16T06:38:22.666Z,28.40
2019-05-16T06:40:52.961Z,32.70
2019-05-16T06:43:22.809Z,32.90
2019-05-16T06:45:52.497Z,29.20
2019-05-16T06:48:22.124Z,29.10
2019-05-16T06:50:52.077Z,31.20
2019-05-16T06:53:21.868Z,33.20
2019-05-16T06:55:51.451Z,33.10
2019-05-16T06:58:22.285Z,30.00
2019-05-16T07:00:52.848Z,27.00
2019-05-16T07:03:22.583Z,26.90
2019-05-16T07:05:52.193Z,26.70
2019-05-16T07:08:21.935Z,26.20
2019-05-16T07:10:51.662Z,27.40
2019-05-16T07:13:21.360Z,28.10
2019-05-16T07:15:51.086Z,30.70
2019-05-16T07:18:21.750Z,31.50
2019-05-16T07:20:51.542Z,31.90
2019-05-16T07:23:21.398Z,33.70
2019-05-16T07:25:51.258Z,36.00
2019-05-16T07:28:21.205Z,38.00
2019-05-16T07:30:51.294Z,36.20
2019-05-16T07:33:21.441Z,37.20
2019-05-16T07:35:51.623Z,36.90
2019-05-16T07:38:21.368Z,38.90
2019-05-16T07:40:51.549Z,39.60
2019-05-16T07:43:21.309Z,39.30
2019-05-16T07:45:51.626Z,37.20
2019-05-16T07:48:22.094Z,36.70
2019-05-16T07:50:53.044Z,36.40
2019-05-16T07:53:22.678Z,37.10
2019-05-16T07:55:52.309Z,37.70
2019-05-16T07:58:22.319Z,37.60
2019-05-16T08:01:02.752Z,38.30
2019-05-16T08:03:23.467Z,38.40
2019-05-16T08:05:53.187Z,37.50
2019-05-16T08:08:24.113Z,36.50
2019-05-16T08:10:54.033Z,37.40
2019-05-16T08:13:23.590Z,37.40
2019-05-16T08:15:53.249Z,37.50
2019-05-16T08:18:22.954Z,37.90
2019-05-16T08:20:52.887Z,37.80
2019-05-16T08:23:23.333Z,36.50
2019-05-16T08:25:52.862Z,33.20
2019-05-16T08:28:22.411Z,34.40
2019-05-16T08:30:53.116Z,34.40
2019-05-16T08:33:24.032Z,32.30
2019-05-16T08:35:53.599Z,30.80
2019-05-16T08:38:23.402Z,27.90
2019-05-16T08:43:24.162Z,24.50
2019-05-16T08:45:53.693Z,24.00
2019-05-16T08:48:23.638Z,23.50
2019-05-16T08:50:55.811Z,23.10
2019-05-16T08:53:24.837Z,23.30
2019-05-16T08:55:54.398Z,23.20
2019-05-16T08:58:24.124Z,23.40
2019-05-16T09:00:55.493Z,23.80
2019-05-16T09:03:26.014Z,23.50
2019-05-16T09:05:55.741Z,23.10
2019-05-16T09:08:25.315Z,23.20
2019-05-16T09:10:37.994Z,25.40
2019-05-16T09:11:01.774Z,23.40
2019-05-16T09:13:27.892Z,23.20
2019-05-16T09:15:57.418Z,23.60
2019-05-16T09:18:29.042Z,23.40
2019-05-16T09:20:58.349Z,23.40
2019-05-16T09:23:27.948Z,23.90
2019-05-16T09:25:58.538Z,23.60
2019-05-16T09:28:28.749Z,23.60
2019-05-16T09:30:58.469Z,23.60
2019-05-16T09:33:28.031Z,23.60
2019-05-16T09:35:57.779Z,23.80
2019-05-16T09:38:28.775Z,23.70
2019-05-16T09:40:58.511Z,24.20
2019-05-16T09:43:28.404Z,23.70
2019-05-16T09:46:03.680Z,23.60
2019-05-16T09:48:30.451Z,23.10
2019-05-16T09:51:00.261Z,23.00
2019-05-16T09:53:29.834Z,23.40
2019-05-16T09:55:59.333Z,23.40
2019-05-16T09:58:29.018Z,23.80
2019-05-16T10:00:58.963Z,24.10
2019-05-16T10:03:28.716Z,23.40
2019-05-16T10:05:59.437Z,24.10
2019-05-16T10:08:29.256Z,23.50
2019-05-16T10:10:59.068Z,23.20
2019-05-16T10:13:28.555Z,22.90
2019-05-16T10:15:58.177Z,23.40
2019-05-16T10:18:28.067Z,23.40
2019-05-16T10:20:59.322Z,23.70
2019-05-16T10:23:29.158Z,24.00
2019-05-16T10:25:58.900Z,24.40
2019-05-16T10:28:28.756Z,24.30
2019-05-16T10:30:58.388Z,24.00
2019-05-16T10:33:27.977Z,24.00
2019-05-16T10:35:58.180Z,23.40
2019-05-16T10:38:28.700Z,23.90
2019-05-16T10:40:58.517Z,24.40
2019-05-16T10:43:28.200Z,24.50
2019-05-16T10:45:57.780Z,24.80
2019-05-16T10:48:27.415Z,24.90
2019-05-16T10:50:57.782Z,24.30
2019-05-16T10:53:57.994Z,24.20
2019-05-16T10:55:59.045Z,24.30
2019-05-16T10:58:36.997Z,23.60
2019-05-16T11:01:27.147Z,23.60
2019-05-16T11:03:31.601Z,23.20
2019-05-16T11:06:05.825Z,23.80
2019-05-16T11:08:32.672Z,23.90
2019-05-16T11:11:02.258Z,24.20
2019-05-16T11:13:31.864Z,23.60
2019-05-16T11:16:01.527Z,23.80
2019-05-16T11:18:31.184Z,23.50
2019-05-16T11:21:01.010Z,23.70
2019-05-16T11:23:31.469Z,24.10
2019-05-16T11:26:01.333Z,24.10
2019-05-16T11:28:31.322Z,23.10
2019-05-16T11:31:03.810Z,22.30
2019-05-16T11:33:32.511Z,22.90
2019-05-16T11:36:02.120Z,23.70
2019-05-16T11:38:31.832Z,24.20
2019-05-16T11:41:01.577Z,24.00
2019-05-16T11:43:31.251Z,23.70
2019-05-16T11:46:00.874Z,23.50
2019-05-16T11:48:30.608Z,23.00
2019-05-16T11:51:00.280Z,22.80
2019-05-16T11:53:29.859Z,23.40
2019-05-16T11:56:01.503Z,23.70
2019-05-16T11:58:30.707Z,23.60
2019-05-16T12:01:01.554Z,23.50
2019-05-16T12:03:32.209Z,23.80
2019-05-16T12:06:01.900Z,23.80
2019-05-16T12:08:31.527Z,23.80
2019-05-16T12:11:01.136Z,23.80
2019-05-16T12:13:32.975Z,24.20
2019-05-16T12:16:02.597Z,24.20
2019-05-16T12:18:32.231Z,24.40
2019-05-16T12:21:01.937Z,23.70
2019-05-16T12:23:31.560Z,23.90
2019-05-16T12:26:01.066Z,24.10
2019-05-16T12:28:30.851Z,24.80
2019-05-16T12:31:00.429Z,25.00
2019-05-16T12:33:30.069Z,25.10
2019-05-16T12:35:59.672Z,25.00
2019-05-16T12:38:29.157Z,24.70
2019-05-16T12:40:58.685Z,23.20
2019-05-16T12:43:44.576Z,22.20
2019-05-16T12:45:59.713Z,22.50
2019-05-16T12:48:29.486Z,23.50
2019-05-16T12:50:59.361Z,24.30
2019-05-16T12:53:31.650Z,24.60
2019-05-16T12:56:00.428Z,25.00
2019-05-16T12:58:38.128Z,25.10
2019-05-16T13:01:02.749Z,24.70
2019-05-16T13:03:32.417Z,24.30
2019-05-16T13:06:02.045Z,24.40
2019-05-16T13:08:31.671Z,24.60
2019-05-16T13:11:01.295Z,24.90
2019-05-16T13:13:30.960Z,24.70
2019-05-16T13:16:02.059Z,24.60
2019-05-16T13:18:31.812Z,24.40
2019-05-16T13:21:01.802Z,24.40
2019-05-16T13:23:31.434Z,24.90
2019-05-16T13:26:01.128Z,24.90
2019-05-16T13:28:30.847Z,24.40
2019-05-16T13:31:00.499Z,24.40
2019-05-16T13:33:30.181Z,23.90
2019-05-16T13:35:59.738Z,23.60
2019-05-16T13:38:29.409Z,23.00
2019-05-16T13:40:59.031Z,23.30
2019-05-16T13:43:28.587Z,22.90
2019-05-16T13:45:58.293Z,23.00
2019-05-16T13:48:28.031Z,23.70
2019-05-16T13:51:10.955Z,24.00
2019-05-16T13:53:28.988Z,24.30
2019-05-16T13:55:58.699Z,24.40
2019-05-16T13:58:28.411Z,24.00
2019-05-16T14:00:58.058Z,23.70
2019-05-16T14:03:27.846Z,23.30
2019-05-16T14:05:58.498Z,22.90
2019-05-16T14:08:28.370Z,22.20
2019-05-16T14:11:01.722Z,21.70
2019-05-16T14:13:29.430Z,21.50
2019-05-16T14:15:59.071Z,21.50
2019-05-16T14:18:28.885Z,21.70
2019-05-16T14:20:58.427Z,22.00
2019-05-16T14:23:28.476Z,22.20
2019-05-16T14:25:58.293Z,22.60
2019-05-16T14:28:28.155Z,23.10
2019-05-16T14:30:57.764Z,23.20
2019-05-16T14:33:27.643Z,22.80
2019-05-16T14:35:57.638Z,22.70
2019-05-16T14:38:27.188Z,23.10
2019-05-16T14:40:57.349Z,23.30
2019-05-16T14:43:27.339Z,23.60
2019-05-16T14:45:57.324Z,23.60
2019-05-16T14:48:27.845Z,23.40
2019-05-16T14:50:58.638Z,23.00
2019-05-16T14:53:28.580Z,22.60
2019-05-16T14:55:58.384Z,22.40
2019-05-16T14:58:30.776Z,22.20
2019-05-16T15:00:59.285Z,21.90
2019-05-16T15:03:28.962Z,22.00
2019-05-16T15:05:59.098Z,22.30
2019-05-16T15:08:29.816Z,22.40
2019-05-16T15:10:59.528Z,22.40
2019-05-16T15:13:29.042Z,22.50
2019-05-16T15:15:58.795Z,22.70
2019-05-16T15:18:28.586Z,22.70
2019-05-16T15:20:58.194Z,22.90
2019-05-16T15:23:28.433Z,22.80
2019-05-16T15:25:58.507Z,22.80
2019-05-16T15:28:30.348Z,22.90
2019-05-16T15:30:59.392Z,23.10
2019-05-16T15:33:29.100Z,23.20
2019-05-16T15:35:58.914Z,23.00
2019-05-16T15:38:28.491Z,22.60
2019-05-16T15:41:00.434Z,22.60
2019-05-16T15:43:29.450Z,22.50
2019-05-16T15:46:01.033Z,22.30
2019-05-16T15:48:30.710Z,22.10
2019-05-16T15:51:00.669Z,22.00
2019-05-16T15:53:30.483Z,22.00
2019-05-16T15:56:00.662Z,21.80
2019-05-16T15:58:30.375Z,21.60
2019-05-16T16:01:00.085Z,21.40
2019-05-16T16:03:29.637Z,21.00
2019-05-16T16:05:59.286Z,20.70
2019-05-16T16:08:29.006Z,20.50
2019-05-16T16:10:58.972Z,20.20
2019-05-16T16:13:28.871Z,20.20
2019-05-16T16:15:58.477Z,20.20
2019-05-16T16:18:28.156Z,20.10
2019-05-16T16:20:57.785Z,20.10
2019-05-16T16:23:27.519Z,20.00
2019-05-16T16:25:59.680Z,19.90
2019-05-16T16:28:28.863Z,20.00
2019-05-16T16:30:58.452Z,20.10
2019-05-16T16:33:30.158Z,20.20
2019-05-16T16:35:59.438Z,20.30
2019-05-16T16:38:29.010Z,20.30
2019-05-16T16:40:58.629Z,20.30
2019-05-16T16:43:28.465Z,20.20
2019-05-16T16:46:08.841Z,20.20
2019-05-16T16:48:30.478Z,20.20
2019-05-16T16:51:00.123Z,20.00
2019-05-16T16:53:29.955Z,20.00
2019-05-16T16:55:59.542Z,20.00
2019-05-16T16:58:29.052Z,20.00
2019-05-16T17:01:01.420Z,20.00
2019-05-16T17:03:29.834Z,19.90
2019-05-16T17:05:59.539Z,19.70
2019-05-16T17:08:29.356Z,19.50
2019-05-16T17:11:00.076Z,19.30
2019-05-16T17:13:29.637Z,19.20
2019-05-16T17:15:59.407Z,19.10
2019-05-16T17:18:29.081Z,19.20
2019-05-16T17:20:58.656Z,19.10
2019-05-16T17:23:28.419Z,19.10
2019-05-16T17:25:58.041Z,19.10
2019-05-16T17:28:27.789Z,19.00
2019-05-16T17:30:57.712Z,18.90
2019-05-16T17:33:28.575Z,18.90
2019-05-16T17:35:59.650Z,18.80
2019-05-16T17:38:29.341Z,18.80
2019-05-16T17:40:59.081Z,18.70
2019-05-16T17:43:28.788Z,18.50
2019-05-16T17:45:58.389Z,18.50
2019-05-16T17:48:29.918Z,18.50
2019-05-16T17:50:59.408Z,18.50
2019-05-16T17:53:29.109Z,18.40
2019-05-16T17:55:58.940Z,18.40
2019-05-16T17:58:28.501Z,18.40
2019-05-16T18:01:00.452Z,18.30
2019-05-16T18:03:29.582Z,18.30
2019-05-16T18:05:59.348Z,18.20
2019-05-16T18:08:29.022Z,18.20
2019-05-16T18:10:58.592Z,18.00
2019-05-16T18:13:28.652Z,17.90
2019-05-16T18:15:58.358Z,17.90
2019-05-16T18:18:29.519Z,17.80
2019-05-16T18:21:02.141Z,17.80
2019-05-16T18:23:30.596Z,17.70
2019-05-16T18:26:02.350Z,17.70
2019-05-16T18:28:33.196Z,17.60
2019-05-16T18:31:05.332Z,17.60
2019-05-16T18:33:37.084Z,17.60
2019-05-16T18:36:07.749Z,17.50
2019-05-16T18:38:38.586Z,17.50
2019-05-16T18:41:08.340Z,17.50
2019-05-16T18:43:38.151Z,17.40
2019-05-16T18:46:07.980Z,17.30
2019-05-16T18:48:37.708Z,17.30
2019-05-16T18:51:08.714Z,17.20
2019-05-16T18:53:38.457Z,17.20
2019-05-16T18:56:09.677Z,17.20
2019-05-16T18:58:39.213Z,17.10
2019-05-16T19:01:09.845Z,17.00
2019-05-16T19:03:39.473Z,16.90
2019-05-16T19:06:09.033Z,16.80
2019-05-16T19:08:39.256Z,16.80
2019-05-16T19:11:08.990Z,16.80
2019-05-16T19:13:38.619Z,16.80
2019-05-16T19:16:09.402Z,16.80
2019-05-16T19:18:39.002Z,16.80
2019-05-16T19:21:10.440Z,16.70
2019-05-16T19:23:40.082Z,16.60
2019-05-16T19:26:09.840Z,16.60
2019-05-16T19:28:39.537Z,16.50
2019-05-16T19:31:11.221Z,16.50
2019-05-16T19:33:40.986Z,16.50
2019-05-16T19:36:10.636Z,16.50
2019-05-16T19:38:40.309Z,16.50
2019-05-16T19:41:09.879Z,16.40
2019-05-16T19:43:40.512Z,16.40
2019-05-16T19:46:10.023Z,16.40
2019-05-16T19:48:40.546Z,16.40
2019-05-16T19:51:10.117Z,16.40
2019-05-16T19:53:39.828Z,16.40
2019-05-16T19:56:09.410Z,16.30
2019-05-16T19:58:39.040Z,16.30
2019-05-16T20:01:10.151Z,16.30
2019-05-16T20:03:39.897Z,16.20
2019-05-16T20:06:10.708Z,16.20
2019-05-16T20:08:40.341Z,16.20
2019-05-16T20:11:10.121Z,16.10
2019-05-16T20:13:39.691Z,16.10
2019-05-16T20:16:09.327Z,16.10
2019-05-16T20:18:39.043Z,16.20
2019-05-16T20:21:08.794Z,16.20
2019-05-16T20:23:38.370Z,16.20
2019-05-16T20:26:08.037Z,16.20
2019-05-16T20:28:38.812Z,16.20
2019-05-16T20:31:08.439Z,16.20
2019-05-16T20:33:38.162Z,16.20
2019-05-16T20:36:09.617Z,16.20
2019-05-16T20:38:39.483Z,16.30
2019-05-16T20:41:09.138Z,16.20
2019-05-16T20:43:38.681Z,16.20
2019-05-16T20:46:09.449Z,16.10
2019-05-16T20:48:39.259Z,16.10
2019-05-16T20:51:08.830Z,16.10
2019-05-16T20:53:38.580Z,16.10
2019-05-16T20:56:09.321Z,16.00
2019-05-16T20:58:39.053Z,16.00
2019-05-16T21:01:08.735Z,16.00
2019-05-16T21:03:38.543Z,16.00
2019-05-16T21:06:08.902Z,16.10
2019-05-16T21:08:38.700Z,16.10
2019-05-16T21:11:08.406Z,16.10
2019-05-16T21:13:38.210Z,16.00
2019-05-16T21:16:07.844Z,16.00
2019-05-16T21:18:37.830Z,16.00
2019-05-16T21:21:08.568Z,16.00
2019-05-16T21:23:38.170Z,16.00
2019-05-16T21:26:08.804Z,16.00
2019-05-16T21:28:38.476Z,15.90
2019-05-16T21:31:09.055Z,15.90
2019-05-16T21:33:38.714Z,15.80
2019-05-16T21:36:08.364Z,15.70
2019-05-16T21:38:37.847Z,15.70
2019-05-16T21:41:07.522Z,15.70
2019-05-16T21:43:37.656Z,15.70
2019-05-16T21:46:07.615Z,15.70
2019-05-16T21:48:37.355Z,15.60
2019-05-16T21:51:07.945Z,15.60
2019-05-16T21:53:37.672Z,15.60
2019-05-16T21:56:07.480Z,15.60
2019-05-16T21:58:38.009Z,15.60
2019-05-16T22:01:10.642Z,15.50
2019-05-16T22:03:41.903Z,15.50
2019-05-16T22:06:11.676Z,15.40
2019-05-16T22:08:41.386Z,15.40
2019-05-16T22:11:11.097Z,15.40
2019-05-16T22:13:41.114Z,15.30
2019-05-16T22:16:10.826Z,15.30
2019-05-16T22:18:40.607Z,15.30
2019-05-16T22:21:10.378Z,15.30
2019-05-16T22:23:40.093Z,15.30
2019-05-16T22:26:09.877Z,15.20
2019-05-16T22:28:39.479Z,15.20
2019-05-16T22:31:09.106Z,15.20
2019-05-16T22:33:38.818Z,15.20
2019-05-16T22:36:08.525Z,15.30
2019-05-16T22:38:38.157Z,15.30
2019-05-16T22:41:10.775Z,15.20
2019-05-16T22:43:39.420Z,15.20
2019-05-16T22:46:09.862Z,15.10
2019-05-16T22:48:39.789Z,15.10
2019-05-16T22:51:09.435Z,15.00
2019-05-16T22:53:38.932Z,15.00
2019-05-16T22:56:08.615Z,15.00
2019-05-16T22:58:39.345Z,15.00
2019-05-16T23:01:09.155Z,15.00
2019-05-16T23:03:38.713Z,15.00
2019-05-16T23:06:08.358Z,15.00
2019-05-16T23:08:38.086Z,15.00
2019-05-16T23:11:07.731Z,14.90
2019-05-16T23:13:37.329Z,14.90
2019-05-16T23:16:08.033Z,14.80
2019-05-16T23:18:38.593Z,14.80
2019-05-16T23:21:08.821Z,14.70
2019-05-16T23:23:38.533Z,14.80
2019-05-16T23:26:08.211Z,14.80
2019-05-16T23:28:37.918Z,14.70
2019-05-16T23:31:07.541Z,14.70
2019-05-16T23:33:37.206Z,14.70
2019-05-16T23:36:07.239Z,14.70
2019-05-16T23:38:38.061Z,14.60
2019-05-16T23:41:07.693Z,14.50
2019-05-16T23:43:37.643Z,14.40
2019-05-16T23:46:07.343Z,14.40
2019-05-16T23:48:38.091Z,14.40
2019-05-16T23:51:07.986Z,14.40
2019-05-16T23:53:37.585Z,14.50
2019-05-16T23:56:07.612Z,14.40
2019-05-16T23:58:37.288Z,14.40
